Marysville, CA

8:20 PM PST on December 07, 2016 (GMT -0800)
Yuba County | | Change Station

Elev 59 ft 39.10 °N, 121.57 °W | Updated 27 minutes ago

Overcast
Overcast
40 °F
Feels Like 32 °F
N
13
Wind Variable Wind from NNW

Today
High -- | Low -- °F
--% Chance of Precip.
Yesterday
High -- | Low -- °F
Precip. -- in
Pressure 30.20 in
Visibility 10.0 miles
Clouds Overcast 6500 ft
Windchill 32 °F
Dew Point 37 °F
Humidity 89%
Rainfall 0.00 in
Snow Depth Not available.
7:12 AM 4:43 PM
First Quarter, 59% visible
METAR KMYV 080353Z AUTO 33011KT 10SM OVC065 04/03 A3018 RMK AO2 RAE37 SLP225 P0000 T00440028
Pressure 30.20 in
Visibility 10.0 miles
Clouds Overcast 6500 ft
Windchill 32 °F
Dew Point 37 °F
Humidity 89%
Rainfall 0.00 in
Snow Depth Not available.
7:12 AM 4:43 PM
First Quarter, 59% visible
METAR KMYV 080353Z AUTO 33011KT 10SM OVC065 04/03 A3018 RMK AO2 RAE37 SLP225 P0000 T00440028

10-Day Weather Forecast

Almanac

Astronomy

Dec. 07, 2016 Rise Set
Actual Time
Civil Twilight
Nautical Twilight
Astronomical Twilight
Moon
Length of Visible Light
Length of Day
Tomorrow will be .
, % of the Moon is Illuminated

Today's Extremes

State Highs State Lows

Community

WunderPhotos

Upload Photos

1,956,259 photos uploaded!

WunderBlog® & News

Nearby

Air Quality

  Air Quality AQ Index Pollutant
Not available.

Snow Depth

Station Depth Elevation

Earthquake Activity

City Distance Mag. Time & Date
Minimum magnitude displayed is 2.5.

Coastal Water Temperatures

Place Temperature

Stations

Nearby Weather Stations

Station Location Temp. Windchill Dew Point Humidity Wind Precip. Elev Updated Type
                   

Watches & Warnings

There are currently no watches in effect.